SAZB/BHI METAR and TAF weather

Enter ICAO airport designator
Station Type Date Time Source
SAZB METAR 2019/08/18 12:48 UTC NOAA

SAZB 181248Z 20012KT 9999 BKN010 05/04 Q1030


Station Type Date Time Source
SAZB Decoded METAR 2019/08/18 12:48 UTC NOAA

Station name not available
Aug 18, 2019 - 08:48 AM EDT / 2019.08.18 1248 UTC
Wind: from the SSW (200 degrees) at 14 MPH (12 KT):0
Visibility: greater than 7 mile(s):0
Sky conditions: mostly cloudy
Temperature: 41 F (5 C)
Dew Point: 39 F (4 C)
Relative Humidity: 93%
Pressure (altimeter): 30.42 in. Hg (1030 hPa)
ob: SAZB 181248Z 20012KT 9999 BKN010 05/04 Q1030
cycle: 13

Station Type Date Time Source
SAZB TAF 2019/05/26 00:44 UTC NOAA

TAF SAZB 262300Z 2700/2724 15005KT CAVOK TX17/2718Z TN07/2710Z
BECMG 2703/2705 VRB03KT
BECMG 2706/2708 33005KT 5000 BR SCT005
BECMG 2712/2715 31008KT CAVOK

Example: see airport list